createdAt,value
2022-11-26T00:00:38.572Z,41.15
2022-11-26T00:04:03.965Z,43.00
2022-11-26T00:07:11.185Z,39.28
2022-11-26T00:10:22.417Z,42.83
2022-11-26T00:13:32.654Z,39.97
2022-11-26T00:16:37.680Z,40.45
2022-11-26T00:19:43.811Z,40.10
2022-11-26T00:22:49.755Z,38.42
2022-11-26T00:25:58.377Z,38.58
2022-11-26T00:29:03.934Z,39.50
2022-11-26T00:32:12.312Z,35.53
2022-11-26T00:35:17.689Z,37.53
2022-11-26T00:38:24.783Z,41.92
2022-11-26T00:41:34.342Z,42.60
2022-11-26T00:44:40.215Z,36.30
2022-11-26T00:47:47.350Z,36.70
2022-11-26T00:50:54.135Z,40.70
2022-11-26T00:54:01.993Z,37.80
2022-11-26T00:57:14.762Z,38.35
2022-11-26T01:00:23.523Z,39.95
2022-11-26T01:03:29.742Z,39.90
2022-11-26T01:06:36.973Z,37.67
2022-11-26T01:09:42.195Z,38.95
2022-11-26T01:12:49.988Z,38.42
2022-11-26T01:15:55.468Z,39.30
2022-11-26T01:19:03.161Z,33.47
2022-11-26T01:22:12.049Z,33.85
2022-11-26T01:25:17.116Z,39.05
2022-11-26T01:28:25.334Z,34.28
2022-11-26T01:31:31.408Z,35.88
2022-11-26T01:34:37.170Z,35.38
2022-11-26T01:37:45.024Z,44.85
2022-11-26T01:40:56.400Z,37.20
2022-11-26T01:44:06.168Z,38.95
2022-11-26T01:47:22.437Z,34.60
2022-11-26T01:50:48.741Z,43.50
2022-11-26T01:53:55.815Z,35.53
2022-11-26T01:57:03.465Z,35.15
2022-11-26T02:00:12.867Z,37.78
2022-11-26T02:03:17.742Z,41.60
2022-11-26T02:06:25.897Z,33.05
2022-11-26T02:09:31.255Z,38.15
2022-11-26T02:12:36.759Z,35.85
2022-11-26T02:15:47.756Z,36.78
2022-11-26T02:19:01.167Z,38.17
2022-11-26T02:22:07.838Z,34.88
2022-11-26T02:25:17.656Z,43.33
2022-11-26T02:28:37.243Z,40.97
2022-11-26T02:31:48.879Z,37.38
2022-11-26T02:34:57.900Z,34.88
2022-11-26T02:38:06.006Z,40.00
2022-11-26T02:41:10.848Z,43.05
2022-11-26T02:44:16.889Z,40.63
2022-11-26T02:47:25.719Z,33.50
2022-11-26T02:50:33.908Z,39.47
2022-11-26T02:53:41.866Z,36.13
2022-11-26T02:56:47.311Z,34.40
2022-11-26T02:59:52.510Z,36.28
2022-11-26T03:03:02.790Z,34.15
2022-11-26T03:06:08.645Z,33.78
2022-11-26T03:09:13.856Z,33.60
2022-11-26T03:12:18.727Z,31.60
2022-11-26T03:15:32.498Z,34.28
2022-11-26T03:18:44.085Z,40.05
2022-11-26T03:21:49.394Z,34.88
2022-11-26T03:24:54.256Z,39.03
2022-11-26T03:27:59.716Z,33.45
2022-11-26T03:31:05.121Z,33.50
2022-11-26T03:34:13.683Z,34.13
2022-11-26T03:37:20.708Z,38.55
2022-11-26T03:40:26.597Z,29.73
2022-11-26T03:43:31.664Z,32.22
2022-11-26T03:46:37.358Z,33.72
2022-11-26T03:49:44.820Z,37.67
2022-11-26T03:52:52.834Z,31.40
2022-11-26T03:55:57.814Z,33.80
2022-11-26T03:59:03.330Z,36.60
2022-11-26T04:02:08.533Z,38.10
2022-11-26T04:05:18.867Z,33.65
2022-11-26T04:08:23.969Z,33.95
2022-11-26T04:11:29.726Z,34.13
2022-11-26T04:14:34.565Z,31.92
2022-11-26T04:17:40.945Z,35.72
2022-11-26T04:20:53.255Z,34.90
2022-11-26T04:23:59.902Z,33.58
2022-11-26T04:27:05.144Z,39.65
2022-11-26T04:30:11.310Z,37.22
2022-11-26T04:33:16.272Z,29.52
2022-11-26T04:36:24.810Z,35.22
2022-11-26T04:39:31.991Z,36.80
2022-11-26T04:42:38.063Z,29.05
2022-11-26T04:45:46.701Z,31.88
2022-11-26T04:48:56.048Z,33.88
2022-11-26T04:52:03.621Z,37.00
2022-11-26T04:55:09.073Z,34.35
2022-11-26T04:58:13.955Z,34.50
2022-11-26T05:01:19.403Z,33.30
2022-11-26T05:04:24.504Z,28.45
2022-11-26T05:07:32.525Z,28.95
2022-11-26T05:10:37.419Z,28.92
2022-11-26T05:13:45.050Z,31.00
2022-11-26T05:16:50.027Z,40.90
2022-11-26T05:19:55.913Z,28.45
2022-11-26T05:23:03.401Z,34.25
2022-11-26T05:26:08.894Z,32.72
2022-11-26T05:29:15.985Z,33.03
2022-11-26T05:32:21.687Z,34.40
2022-11-26T05:35:26.620Z,30.60
2022-11-26T05:38:34.728Z,36.92
2022-11-26T05:41:39.590Z,30.98
2022-11-26T05:44:49.488Z,35.83
2022-11-26T05:47:54.665Z,34.65
2022-11-26T05:51:00.812Z,34.17
2022-11-26T05:54:08.482Z,35.05
2022-11-26T05:57:13.986Z,35.58
2022-11-26T06:00:20.026Z,33.80
2022-11-26T06:03:27.279Z,35.72
2022-11-26T06:06:32.615Z,36.45
2022-11-26T06:09:42.813Z,36.95
2022-11-26T06:12:47.737Z,41.13
2022-11-26T06:15:53.081Z,41.63
2022-11-26T06:19:00.265Z,37.75
2022-11-26T06:22:08.002Z,42.45
2022-11-26T06:25:17.626Z,39.33
2022-11-26T06:28:23.073Z,41.35
2022-11-26T06:31:28.243Z,38.78
2022-11-26T06:34:36.030Z,42.30
2022-11-26T06:37:42.099Z,36.35
2022-11-26T06:40:49.977Z,40.80
2022-11-26T06:43:54.852Z,40.53
2022-11-26T06:47:00.346Z,37.95
2022-11-26T06:50:10.597Z,40.35
2022-11-26T06:53:16.440Z,42.03
2022-11-26T06:56:23.881Z,40.10
2022-11-26T06:59:29.318Z,43.95
2022-11-26T07:02:37.703Z,53.45
2022-11-26T07:05:49.218Z,42.83
2022-11-26T07:08:56.578Z,44.42
2022-11-26T07:12:04.425Z,44.75
2022-11-26T07:15:11.890Z,36.83
2022-11-26T07:18:17.285Z,45.67
2022-11-26T07:21:22.992Z,44.60
2022-11-26T07:24:28.800Z,34.67
2022-11-26T07:27:36.284Z,46.33
2022-11-26T07:30:41.545Z,42.03
2022-11-26T07:33:46.977Z,48.50
2022-11-26T07:36:58.141Z,38.38
2022-11-26T07:40:05.836Z,41.60
2022-11-26T07:43:13.736Z,42.22
2022-11-26T07:46:19.995Z,46.85
2022-11-26T07:49:25.241Z,44.33
2022-11-26T07:52:30.079Z,47.63
2022-11-26T07:55:36.781Z,34.63
2022-11-26T07:58:44.469Z,42.67
2022-11-26T08:01:54.803Z,42.35
2022-11-26T08:05:00.530Z,44.65
2022-11-26T08:08:05.827Z,42.65
2022-11-26T08:11:14.982Z,43.88
2022-11-26T08:14:23.512Z,44.95
2022-11-26T08:17:28.636Z,43.47
2022-11-26T08:20:35.037Z,46.33
2022-11-26T08:23:40.252Z,42.65
2022-11-26T08:26:48.188Z,47.50
2022-11-26T08:29:56.726Z,46.92
2022-11-26T08:33:02.246Z,41.38
2022-11-26T08:36:08.489Z,35.20
2022-11-26T08:39:17.473Z,38.55
2022-11-26T08:42:25.152Z,43.05
2022-11-26T08:45:33.858Z,40.92
2022-11-26T08:48:39.535Z,37.75
2022-11-26T08:51:44.989Z,36.05
2022-11-26T08:54:50.337Z,38.30
2022-11-26T08:57:57.250Z,37.63
2022-11-26T09:01:09.830Z,38.97
2022-11-26T09:04:15.290Z,40.10
2022-11-26T09:07:20.264Z,44.70
2022-11-26T09:10:28.559Z,40.40
2022-11-26T09:13:35.093Z,42.13
2022-11-26T09:16:45.733Z,38.63
2022-11-26T09:19:51.090Z,38.47
2022-11-26T09:22:56.470Z,40.05
2022-11-26T09:26:04.194Z,36.45
2022-11-26T09:29:16.025Z,42.03
2022-11-26T09:32:32.479Z,36.20
2022-11-26T09:35:39.301Z,38.28
2022-11-26T09:38:47.321Z,38.55
2022-11-26T09:41:59.420Z,39.83
2022-11-26T09:45:12.249Z,33.80
2022-11-26T09:48:23.089Z,35.47
2022-11-26T09:51:28.891Z,33.47
2022-11-26T09:54:36.968Z,31.80
2022-11-26T09:57:44.426Z,34.15
2022-11-26T10:00:52.214Z,36.75
2022-11-26T10:04:11.773Z,33.00
2022-11-26T10:07:27.316Z,33.50
2022-11-26T10:10:39.912Z,34.20
2022-11-26T10:13:53.071Z,35.08
2022-11-26T10:17:07.750Z,32.35
2022-11-26T10:20:34.680Z,31.45
2022-11-26T10:23:46.087Z,36.72
2022-11-26T10:26:52.463Z,31.23
2022-11-26T10:29:58.717Z,27.95
2022-11-26T10:33:05.467Z,28.77
2022-11-26T10:36:19.530Z,29.85
2022-11-26T10:39:30.819Z,31.73
2022-11-26T10:42:43.055Z,30.55
2022-11-26T10:45:51.434Z,28.88
2022-11-26T10:48:56.426Z,27.27
2022-11-26T10:52:05.289Z,33.38
2022-11-26T10:55:20.415Z,33.17
2022-11-26T10:58:29.203Z,28.13
2022-11-26T11:01:38.804Z,29.20
2022-11-26T11:04:47.897Z,27.13
2022-11-26T11:07:55.122Z,28.42
2022-11-26T11:11:07.929Z,28.08
2022-11-26T11:14:19.402Z,29.05
2022-11-26T11:17:36.340Z,30.85
2022-11-26T11:20:42.151Z,32.40
2022-11-26T11:24:08.326Z,30.55
2022-11-26T11:27:23.453Z,29.48
2022-11-26T11:30:29.854Z,34.97
2022-11-26T11:33:34.727Z,32.88
2022-11-26T11:36:42.707Z,29.77
2022-11-26T11:39:49.716Z,32.80
2022-11-26T11:42:59.546Z,29.05
2022-11-26T11:46:13.416Z,31.27
2022-11-26T11:49:24.960Z,27.67
2022-11-26T11:52:37.723Z,24.92
2022-11-26T11:55:55.922Z,29.60
2022-11-26T11:59:16.816Z,28.30
2022-11-26T12:02:32.279Z,28.98
2022-11-26T12:05:42.447Z,34.33
2022-11-26T12:08:56.781Z,27.80
2022-11-26T12:12:03.404Z,28.45
2022-11-26T12:15:15.064Z,30.67
2022-11-26T12:18:23.516Z,27.02
2022-11-26T12:21:32.353Z,25.80
2022-11-26T12:24:41.164Z,24.80
2022-11-26T12:27:50.462Z,23.48
2022-11-26T12:31:01.554Z,22.70
2022-11-26T12:34:09.141Z,18.93
2022-11-26T12:37:18.559Z,22.65
2022-11-26T12:40:32.440Z,21.30
2022-11-26T12:43:48.544Z,17.48
2022-11-26T12:47:01.948Z,19.80
2022-11-26T12:53:16.845Z,20.92
2022-11-26T12:56:24.782Z,21.45
2022-11-26T12:59:32.826Z,19.10
2022-11-26T13:02:41.814Z,19.70
2022-11-26T13:05:52.023Z,20.23
2022-11-26T13:09:00.774Z,22.02
2022-11-26T13:12:13.469Z,23.20
2022-11-26T13:15:23.822Z,23.77
2022-11-26T13:18:46.549Z,28.48
2022-11-26T13:22:11.477Z,24.15
2022-11-26T13:25:36.688Z,25.17
2022-11-26T13:28:49.305Z,25.02
2022-11-26T13:32:13.091Z,25.75
2022-11-26T13:35:27.292Z,26.52
2022-11-26T13:38:41.491Z,27.95
2022-11-26T13:42:03.653Z,30.20
2022-11-26T13:45:25.211Z,30.17
2022-11-26T13:48:38.883Z,27.38
2022-11-26T13:51:55.496Z,27.92
2022-11-26T13:55:08.415Z,31.33
2022-11-26T13:58:23.883Z,27.08
2022-11-26T14:01:37.436Z,29.95
2022-11-26T14:04:55.447Z,32.08
2022-11-26T14:08:29.259Z,30.83
2022-11-26T14:11:51.429Z,31.13
2022-11-26T14:14:56.613Z,32.38
2022-11-26T14:18:03.410Z,34.40
2022-11-26T14:21:14.697Z,31.38
2022-11-26T14:24:44.293Z,32.60
2022-11-26T14:27:56.071Z,31.95
2022-11-26T14:31:15.249Z,36.80
2022-11-26T14:34:22.225Z,36.85
2022-11-26T14:37:29.068Z,38.45
2022-11-26T14:40:42.244Z,37.20
2022-11-26T14:43:49.237Z,41.15
2022-11-26T14:46:56.296Z,39.22
2022-11-26T14:50:03.951Z,35.50
2022-11-26T14:53:18.879Z,40.50
2022-11-26T14:56:28.085Z,38.95
2022-11-26T14:59:33.538Z,42.92
2022-11-26T15:02:42.034Z,36.17
2022-11-26T15:05:47.197Z,46.97
2022-11-26T15:08:53.412Z,42.28
2022-11-26T15:12:06.096Z,36.55
2022-11-26T15:18:17.763Z,35.40
2022-11-26T15:21:27.729Z,44.05
2022-11-26T15:24:33.210Z,41.53
2022-11-26T15:27:52.121Z,40.97
2022-11-26T15:31:06.465Z,36.58
2022-11-26T15:34:18.240Z,44.83
2022-11-26T15:37:23.952Z,42.28
2022-11-26T15:40:33.501Z,43.05
2022-11-26T15:43:46.112Z,44.28
2022-11-26T15:46:52.943Z,49.13
2022-11-26T15:50:03.742Z,44.80
2022-11-26T15:53:18.130Z,41.50
2022-11-26T15:56:25.248Z,45.53
2022-11-26T15:59:41.557Z,42.20
2022-11-26T16:02:47.126Z,40.58
2022-11-26T16:05:57.044Z,42.45
2022-11-26T16:09:04.125Z,42.63
2022-11-26T16:12:29.202Z,42.95
2022-11-26T16:15:38.977Z,43.08
2022-11-26T16:18:46.579Z,45.47
2022-11-26T16:21:52.348Z,41.40
2022-11-26T16:25:04.270Z,41.78
2022-11-26T16:28:17.028Z,42.60
2022-11-26T16:31:25.790Z,43.78
2022-11-26T16:34:37.725Z,45.40
2022-11-26T16:37:46.234Z,40.70
2022-11-26T16:40:51.305Z,42.17
2022-11-26T16:43:58.595Z,41.35
2022-11-26T16:47:06.348Z,42.35
2022-11-26T16:50:18.242Z,42.88
2022-11-26T16:53:23.155Z,36.70
2022-11-26T16:56:34.860Z,39.92
2022-11-26T16:59:41.718Z,35.33
2022-11-26T17:02:50.969Z,35.42
2022-11-26T17:05:58.218Z,32.45
2022-11-26T17:09:04.237Z,34.88
2022-11-26T17:12:15.226Z,31.05
2022-11-26T17:15:20.854Z,34.45
2022-11-26T17:18:39.966Z,36.40
2022-11-26T17:21:49.515Z,34.90
2022-11-26T17:24:55.260Z,41.05
2022-11-26T17:28:00.742Z,43.35
2022-11-26T17:31:06.539Z,44.03
2022-11-26T17:34:14.825Z,46.13
2022-11-26T17:37:22.524Z,45.28
2022-11-26T17:40:29.121Z,45.60
2022-11-26T17:43:36.236Z,46.55
2022-11-26T17:47:09.014Z,51.35
2022-11-26T17:50:16.666Z,44.08
2022-11-26T17:53:24.830Z,43.85
2022-11-26T17:56:32.088Z,43.55
2022-11-26T18:11:21.026Z,40.03
2022-11-26T18:14:29.314Z,43.20
2022-11-26T18:17:34.971Z,41.05
2022-11-26T18:20:42.656Z,39.83
2022-11-26T18:23:48.989Z,42.40
2022-11-26T18:26:57.366Z,41.15
2022-11-26T18:30:02.880Z,41.92
2022-11-26T18:33:08.613Z,40.03
2022-11-26T18:36:14.057Z,41.83
2022-11-26T18:39:21.685Z,46.97
2022-11-26T18:42:37.221Z,44.88
2022-11-26T18:45:44.612Z,43.22
2022-11-26T18:48:50.461Z,44.92
2022-11-26T18:51:58.214Z,40.83
2022-11-26T18:55:04.865Z,44.45
2022-11-26T18:58:14.489Z,42.47
2022-11-26T19:01:22.198Z,40.40
2022-11-26T19:04:27.684Z,44.75
2022-11-26T19:07:33.272Z,40.85
2022-11-26T19:10:39.358Z,41.33
2022-11-26T19:13:48.067Z,37.53
2022-11-26T19:16:54.651Z,48.40
2022-11-26T19:19:59.629Z,45.22
2022-11-26T19:23:05.065Z,55.35
2022-11-26T19:26:16.813Z,79.93
2022-11-26T19:29:24.954Z,72.45
2022-11-26T19:32:30.251Z,80.72
2022-11-26T19:35:42.678Z,55.35
2022-11-26T19:38:58.045Z,85.32
2022-11-26T19:42:04.182Z,107.75
2022-11-26T19:45:13.299Z,159.48
2022-11-26T19:48:18.903Z,211.48
2022-11-26T19:51:24.437Z,378.25
2022-11-26T19:54:29.794Z,152.60
2022-11-26T19:57:35.242Z,199.82
2022-11-26T20:00:45.426Z,222.60
2022-11-26T20:03:50.565Z,206.57
2022-11-26T20:06:56.601Z,242.80
2022-11-26T20:10:01.663Z,294.83
2022-11-26T20:13:09.035Z,201.13
2022-11-26T20:16:19.015Z,220.45
2022-11-26T20:19:24.453Z,205.23
2022-11-26T20:22:35.443Z,184.10
2022-11-26T20:25:40.702Z,218.07
2022-11-26T20:28:47.577Z,190.57
2022-11-26T20:31:56.071Z,327.40
2022-11-26T20:35:01.997Z,195.73
2022-11-26T20:38:10.703Z,108.50
2022-11-26T20:41:17.336Z,249.10
2022-11-26T20:44:23.339Z,134.25
2022-11-26T20:47:32.766Z,122.35
2022-11-26T20:50:38.117Z,135.15
2022-11-26T20:53:56.254Z,188.23
2022-11-26T20:57:03.109Z,172.88
2022-11-26T21:00:09.016Z,117.93
2022-11-26T21:03:17.527Z,144.93
2022-11-26T21:06:29.380Z,135.88
2022-11-26T21:09:35.332Z,127.53
2022-11-26T21:12:40.525Z,115.60
2022-11-26T21:15:47.652Z,77.50
2022-11-26T21:18:55.456Z,85.25
2022-11-26T21:22:00.833Z,115.68
2022-11-26T21:25:05.967Z,70.00
2022-11-26T21:28:15.000Z,82.25
2022-11-26T21:31:21.433Z,169.65
2022-11-26T21:34:29.372Z,170.02
2022-11-26T21:37:34.336Z,64.90
2022-11-26T21:40:39.818Z,85.63
2022-11-26T21:43:45.348Z,118.22
2022-11-26T21:46:50.688Z,188.02
2022-11-26T21:49:58.617Z,239.88
2022-11-26T21:53:04.080Z,205.02
2022-11-26T21:56:10.807Z,96.53
2022-11-26T21:59:20.639Z,90.65
2022-11-26T22:02:26.333Z,77.05
2022-11-26T22:05:36.053Z,79.20
2022-11-26T22:08:41.727Z,156.30
2022-11-26T22:11:48.005Z,84.10
2022-11-26T22:14:53.059Z,168.63
2022-11-26T22:17:58.485Z,79.88
2022-11-26T22:21:06.380Z,156.50
2022-11-26T22:24:14.570Z,129.63
2022-11-26T22:27:23.405Z,111.60
2022-11-26T22:30:29.498Z,60.53
2022-11-26T22:33:35.561Z,51.15
2022-11-26T22:36:44.820Z,84.15
2022-11-26T22:39:53.888Z,121.00
2022-11-26T22:43:00.957Z,98.90
2022-11-26T22:46:06.330Z,127.22
2022-11-26T22:49:14.035Z,65.85
2022-11-26T22:52:22.614Z,96.45
2022-11-26T22:55:30.857Z,50.35
2022-11-26T22:58:38.514Z,66.03
2022-11-26T23:01:44.330Z,93.78
2022-11-26T23:05:02.378Z,86.95
2022-11-26T23:08:11.088Z,45.20
2022-11-26T23:11:18.147Z,61.00
2022-11-26T23:14:23.562Z,45.22
2022-11-26T23:17:28.994Z,53.10
2022-11-26T23:20:38.196Z,67.35
2022-11-26T23:23:46.371Z,50.25
2022-11-26T23:26:57.737Z,73.55
2022-11-26T23:30:02.864Z,52.13
2022-11-26T23:33:09.533Z,82.38
2022-11-26T23:36:21.808Z,69.30
2022-11-26T23:39:30.173Z,62.50
2022-11-26T23:42:35.120Z,76.03
2022-11-26T23:45:42.027Z,66.65
2022-11-26T23:48:51.349Z,52.40
2022-11-26T23:51:56.861Z,54.67
2022-11-26T23:55:04.817Z,29.95
2022-11-26T23:58:10.208Z,58.72
